createdAt,value
2023-05-06T00:00:39.633Z,21.17
2023-05-06T00:03:25.049Z,21.18
2023-05-06T00:06:10.612Z,21.20
2023-05-06T00:08:55.891Z,21.18
2023-05-06T00:11:41.476Z,21.18
2023-05-06T00:14:27.049Z,21.20
2023-05-06T00:17:12.266Z,21.19
2023-05-06T00:19:58.735Z,21.20
2023-05-06T00:22:43.900Z,21.20
2023-05-06T00:25:29.161Z,21.20
2023-05-06T00:28:15.063Z,21.20
2023-05-06T00:31:00.662Z,21.21
2023-05-06T00:33:46.357Z,21.21
2023-05-06T00:36:31.669Z,21.22
2023-05-06T00:39:17.376Z,21.21
2023-05-06T00:42:03.517Z,21.22
2023-05-06T00:44:51.867Z,21.23
2023-05-06T00:47:38.054Z,21.22
2023-05-06T00:50:24.881Z,21.23
2023-05-06T00:53:10.772Z,21.23
2023-05-06T00:55:56.509Z,21.23
2023-05-06T00:58:41.752Z,21.23
2023-05-06T01:01:27.360Z,21.24
2023-05-06T01:04:12.994Z,21.22
2023-05-06T01:07:23.617Z,21.23
2023-05-06T01:10:53.570Z,21.23
2023-05-06T01:13:41.695Z,21.23
2023-05-06T01:16:30.931Z,21.22
2023-05-06T01:19:30.151Z,21.23
2023-05-06T01:22:16.628Z,21.23
2023-05-06T01:25:01.966Z,21.24
2023-05-06T01:27:47.439Z,21.22
2023-05-06T01:30:40.725Z,21.23
2023-05-06T01:33:41.202Z,21.24
2023-05-06T01:36:39.110Z,21.24
2023-05-06T01:39:26.181Z,21.24
2023-05-06T01:42:14.061Z,21.25
2023-05-06T01:45:02.218Z,21.25
2023-05-06T01:47:50.103Z,21.26
2023-05-06T01:50:36.733Z,21.25
2023-05-06T01:53:22.432Z,21.26
2023-05-06T01:56:08.022Z,21.26
2023-05-06T01:58:53.782Z,21.27
2023-05-06T02:01:39.070Z,21.26
2023-05-06T02:04:26.003Z,21.26
2023-05-06T02:07:11.936Z,21.27
2023-05-06T02:09:57.469Z,21.27
2023-05-06T02:12:43.899Z,21.26
2023-05-06T02:15:29.136Z,21.27
2023-05-06T02:18:15.322Z,21.27
2023-05-06T02:21:01.798Z,21.27
2023-05-06T02:23:46.992Z,21.26
2023-05-06T02:26:32.283Z,21.27
2023-05-06T02:29:17.431Z,21.27
2023-05-06T02:32:02.540Z,21.29
2023-05-06T02:34:47.779Z,21.28
2023-05-06T02:37:33.089Z,21.28
2023-05-06T02:40:20.462Z,21.29
2023-05-06T02:43:05.540Z,21.28
2023-05-06T02:45:52.750Z,21.28
2023-05-06T02:48:38.132Z,21.29
2023-05-06T02:51:23.339Z,21.29
2023-05-06T02:54:08.652Z,21.30
2023-05-06T02:56:53.919Z,21.30
2023-05-06T02:59:39.589Z,21.30
2023-05-06T03:02:25.334Z,21.30
2023-05-06T03:05:10.825Z,21.30
2023-05-06T03:07:56.444Z,21.28
2023-05-06T03:10:42.147Z,21.31
2023-05-06T03:13:27.853Z,21.29
2023-05-06T03:16:14.251Z,21.29
2023-05-06T03:19:03.873Z,21.30
2023-05-06T03:21:50.750Z,21.29
2023-05-06T03:24:37.833Z,21.30
2023-05-06T03:27:25.242Z,21.30
2023-05-06T03:30:14.719Z,21.30
2023-05-06T03:33:01.477Z,21.31
2023-05-06T03:35:50.214Z,21.32
2023-05-06T03:38:36.618Z,21.32
2023-05-06T03:41:25.905Z,21.33
2023-05-06T03:44:12.170Z,21.35
2023-05-06T03:46:58.408Z,21.38
2023-05-06T03:49:44.204Z,21.40
2023-05-06T03:52:30.273Z,21.44
2023-05-06T03:55:17.724Z,21.47
2023-05-06T03:58:02.972Z,21.51
2023-05-06T04:00:48.188Z,21.53
2023-05-06T04:03:33.524Z,21.56
2023-05-06T04:06:19.597Z,21.61
2023-05-06T04:09:06.402Z,21.64
2023-05-06T04:11:54.507Z,21.66
2023-05-06T04:14:40.655Z,21.71
2023-05-06T04:17:26.900Z,21.74
2023-05-06T04:20:12.540Z,21.75
2023-05-06T04:22:58.676Z,21.76
2023-05-06T04:25:49.037Z,21.80
2023-05-06T04:28:36.443Z,21.84
2023-05-06T04:31:23.577Z,21.85
2023-05-06T04:34:11.260Z,21.88
2023-05-06T04:36:58.272Z,21.89
2023-05-06T04:40:04.557Z,21.92
2023-05-06T04:42:52.424Z,21.94
2023-05-06T04:45:49.285Z,21.97
2023-05-06T04:48:39.165Z,21.98
2023-05-06T04:51:26.844Z,21.99
2023-05-06T04:54:12.734Z,22.01
2023-05-06T04:56:59.725Z,22.03
2023-05-06T04:59:46.337Z,22.05
2023-05-06T05:02:32.060Z,22.08
2023-05-06T05:05:17.914Z,22.10
2023-05-06T05:08:08.003Z,22.13
2023-05-06T05:10:55.389Z,22.16
2023-05-06T05:13:42.668Z,22.16
2023-05-06T05:16:27.867Z,22.15
2023-05-06T05:19:13.574Z,22.16
2023-05-06T05:21:58.926Z,22.14
2023-05-06T05:24:44.661Z,22.17
2023-05-06T05:27:30.678Z,22.18
2023-05-06T05:30:16.368Z,22.20
2023-05-06T05:33:02.212Z,22.19
2023-05-06T05:35:48.929Z,22.19
2023-05-06T05:38:34.193Z,22.20
2023-05-06T05:41:19.454Z,22.19
2023-05-06T05:44:05.304Z,22.20
2023-05-06T05:46:50.944Z,22.21
2023-05-06T05:49:38.441Z,22.24
2023-05-06T05:52:24.244Z,22.26
2023-05-06T05:55:09.935Z,22.23
2023-05-06T05:57:57.327Z,22.26
2023-05-06T06:00:45.440Z,22.28
2023-05-06T06:03:33.740Z,22.29
2023-05-06T06:06:19.787Z,22.31
2023-05-06T06:09:05.130Z,22.34
2023-05-06T06:11:50.591Z,22.36
2023-05-06T06:14:36.240Z,22.37
2023-05-06T06:17:22.477Z,22.38
2023-05-06T06:20:10.509Z,22.38
2023-05-06T06:22:56.910Z,22.40
2023-05-06T06:25:42.798Z,22.41
2023-05-06T06:28:28.717Z,22.40
2023-05-06T06:31:14.059Z,22.45
2023-05-06T06:33:59.237Z,22.44
2023-05-06T06:36:45.407Z,22.45
2023-05-06T06:39:31.166Z,22.44
2023-05-06T06:42:16.530Z,22.44
2023-05-06T06:45:17.531Z,22.46
2023-05-06T06:48:03.352Z,22.45
2023-05-06T06:50:48.791Z,22.47
2023-05-06T06:53:35.002Z,22.46
2023-05-06T06:56:21.416Z,22.42
2023-05-06T06:59:07.972Z,22.46
2023-05-06T07:01:53.567Z,22.42
2023-05-06T07:04:39.140Z,22.39
2023-05-06T07:07:24.570Z,22.41
2023-05-06T07:10:10.808Z,22.42
2023-05-06T07:12:56.668Z,22.45
2023-05-06T07:15:41.700Z,22.46
2023-05-06T07:18:27.120Z,22.49
2023-05-06T07:21:13.454Z,22.50
2023-05-06T07:23:59.464Z,22.47
2023-05-06T07:26:45.251Z,22.42
2023-05-06T07:29:30.704Z,22.44
2023-05-06T07:32:16.057Z,22.42
2023-05-06T07:35:01.691Z,22.44
2023-05-06T07:37:47.689Z,22.42
2023-05-06T07:40:33.333Z,22.41
2023-05-06T07:43:18.620Z,22.40
2023-05-06T07:46:04.253Z,22.40
2023-05-06T07:48:49.756Z,22.38
2023-05-06T07:51:35.046Z,22.39
2023-05-06T07:54:20.663Z,22.40
2023-05-06T07:57:06.322Z,22.38
2023-05-06T07:59:52.973Z,22.38
2023-05-06T08:02:44.033Z,22.40
2023-05-06T08:05:30.059Z,22.39
2023-05-06T08:08:15.611Z,22.40
2023-05-06T08:11:01.193Z,22.47
2023-05-06T08:13:47.188Z,22.49
2023-05-06T08:16:32.907Z,22.50
2023-05-06T08:19:18.484Z,22.49
2023-05-06T08:22:03.784Z,22.51
2023-05-06T08:24:49.239Z,22.53
2023-05-06T08:27:34.496Z,22.56
2023-05-06T08:30:19.933Z,22.57
2023-05-06T08:33:05.391Z,22.61
2023-05-06T08:35:50.954Z,22.63
2023-05-06T08:38:36.824Z,22.65
2023-05-06T08:41:22.259Z,22.66
2023-05-06T08:44:08.421Z,22.70
2023-05-06T08:46:54.017Z,22.72
2023-05-06T08:49:39.978Z,22.76
2023-05-06T08:52:25.237Z,22.79
2023-05-06T08:55:11.600Z,22.80
2023-05-06T08:57:58.038Z,22.82
2023-05-06T09:00:44.432Z,22.86
2023-05-06T09:03:30.180Z,22.87
2023-05-06T09:06:15.684Z,22.89
2023-05-06T09:09:00.905Z,22.92
2023-05-06T09:11:53.866Z,22.93
2023-05-06T09:14:40.172Z,22.93
2023-05-06T09:17:26.949Z,22.93
2023-05-06T09:20:12.835Z,22.95
2023-05-06T09:22:58.517Z,22.95
2023-05-06T09:25:46.165Z,22.94
2023-05-06T09:28:33.141Z,22.94
2023-05-06T09:31:18.827Z,22.95
2023-05-06T09:34:04.176Z,22.96
2023-05-06T09:36:49.785Z,22.94
2023-05-06T09:39:35.002Z,22.92
2023-05-06T09:42:22.633Z,22.95
2023-05-06T09:45:08.859Z,22.97
2023-05-06T09:47:58.722Z,22.95
2023-05-06T09:50:44.532Z,22.95
2023-05-06T09:53:32.644Z,22.95
2023-05-06T09:56:19.355Z,22.95
2023-05-06T09:59:07.919Z,22.94
2023-05-06T10:01:54.857Z,22.92
2023-05-06T10:04:42.509Z,22.93
2023-05-06T10:07:28.839Z,22.91
2023-05-06T10:10:14.361Z,22.91
2023-05-06T10:13:02.118Z,22.90
2023-05-06T10:15:49.314Z,22.90
2023-05-06T10:18:37.039Z,22.92
2023-05-06T10:21:25.325Z,22.90
2023-05-06T10:24:19.333Z,22.89
2023-05-06T10:27:06.904Z,22.89
2023-05-06T10:29:59.444Z,22.89
2023-05-06T10:32:46.045Z,22.90
2023-05-06T10:35:41.055Z,22.90
2023-05-06T10:38:45.656Z,22.90
2023-05-06T10:41:32.146Z,22.89
2023-05-06T10:44:18.079Z,22.88
2023-05-06T10:47:05.653Z,22.92
2023-05-06T10:50:25.966Z,22.90
2023-05-06T10:53:11.597Z,22.92
2023-05-06T10:56:09.367Z,22.92
2023-05-06T10:58:55.890Z,22.94
2023-05-06T11:01:43.229Z,22.95
2023-05-06T11:04:31.283Z,22.95
2023-05-06T11:07:23.230Z,22.96
2023-05-06T11:10:11.491Z,22.95
2023-05-06T11:12:56.917Z,22.94
2023-05-06T11:15:46.365Z,22.96
2023-05-06T11:18:34.205Z,22.96
2023-05-06T11:21:31.132Z,22.94
2023-05-06T11:24:23.714Z,22.97
2023-05-06T11:27:10.605Z,22.96
2023-05-06T11:29:56.385Z,22.96
2023-05-06T11:32:43.290Z,22.96
2023-05-06T11:35:36.005Z,22.94
2023-05-06T11:38:21.594Z,22.95
2023-05-06T11:41:08.611Z,22.94
2023-05-06T11:43:53.878Z,22.94
2023-05-06T11:46:39.233Z,22.94
2023-05-06T11:49:25.788Z,22.95
2023-05-06T11:52:12.881Z,22.94
2023-05-06T11:54:58.170Z,22.93
2023-05-06T11:57:44.884Z,22.95
2023-05-06T12:00:30.584Z,22.96
2023-05-06T12:03:16.013Z,22.95
2023-05-06T12:06:01.411Z,22.95
2023-05-06T12:08:47.870Z,22.94
2023-05-06T12:11:33.788Z,22.94
2023-05-06T12:14:19.586Z,22.95
2023-05-06T12:17:05.772Z,22.96
2023-05-06T12:19:51.089Z,22.95
2023-05-06T12:22:39.761Z,22.96
2023-05-06T12:25:25.867Z,22.96
2023-05-06T12:28:27.047Z,22.95
2023-05-06T12:31:24.323Z,22.97
2023-05-06T12:34:10.264Z,22.97
2023-05-06T12:36:56.698Z,22.97
2023-05-06T12:39:42.742Z,22.98
2023-05-06T12:42:28.522Z,22.99
2023-05-06T12:45:16.210Z,22.98
2023-05-06T12:48:03.224Z,23.00
2023-05-06T12:50:48.906Z,23.00
2023-05-06T12:53:35.593Z,22.99
2023-05-06T12:56:24.755Z,22.99
2023-05-06T12:59:10.006Z,23.03
2023-05-06T13:01:55.718Z,23.02
2023-05-06T13:04:41.386Z,23.02
2023-05-06T13:07:26.618Z,23.01
2023-05-06T13:10:12.671Z,23.00
2023-05-06T13:12:58.255Z,23.01
2023-05-06T13:15:43.933Z,23.01
2023-05-06T13:18:29.668Z,23.03
2023-05-06T13:21:15.266Z,23.04
2023-05-06T13:24:00.639Z,23.03
2023-05-06T13:26:46.086Z,23.02
2023-05-06T13:29:31.949Z,23.04
2023-05-06T13:32:17.484Z,23.04
2023-05-06T13:35:02.807Z,23.04
2023-05-06T13:37:48.261Z,23.03
2023-05-06T13:40:33.594Z,23.01
2023-05-06T13:43:19.932Z,23.00
2023-05-06T13:46:05.286Z,23.00
2023-05-06T13:48:51.218Z,23.01
2023-05-06T13:51:36.459Z,23.01
2023-05-06T13:54:21.671Z,23.01
2023-05-06T13:57:07.064Z,23.02
2023-05-06T13:59:52.248Z,23.04
2023-05-06T14:02:37.712Z,23.06
2023-05-06T14:05:23.213Z,23.08
2023-05-06T14:08:08.902Z,23.09
2023-05-06T14:10:54.748Z,23.09
2023-05-06T14:13:40.882Z,23.11
2023-05-06T14:16:26.177Z,23.10
2023-05-06T14:19:11.505Z,23.12
2023-05-06T14:21:56.825Z,23.15
2023-05-06T14:24:42.468Z,23.18
2023-05-06T14:27:28.018Z,23.20
2023-05-06T14:30:13.596Z,23.19
2023-05-06T14:32:59.174Z,23.22
2023-05-06T14:35:46.077Z,23.23
2023-05-06T14:38:31.496Z,23.22
2023-05-06T14:41:16.679Z,23.21
2023-05-06T14:44:01.792Z,23.21
2023-05-06T14:46:46.943Z,23.18
2023-05-06T14:49:32.414Z,23.22
2023-05-06T14:52:18.047Z,23.21
2023-05-06T14:55:06.083Z,23.25
2023-05-06T14:57:51.646Z,23.27
2023-05-06T15:00:37.118Z,23.27
2023-05-06T15:03:22.299Z,23.26
2023-05-06T15:06:07.867Z,23.24
2023-05-06T15:08:53.496Z,23.26
2023-05-06T15:11:38.742Z,23.27
2023-05-06T15:14:24.573Z,23.27
2023-05-06T15:17:10.115Z,23.28
2023-05-06T15:19:56.371Z,23.28
2023-05-06T15:22:41.956Z,23.28
2023-05-06T15:25:34.866Z,23.27
2023-05-06T15:28:24.287Z,23.26
2023-05-06T15:31:09.863Z,23.23
2023-05-06T15:33:55.220Z,23.20
2023-05-06T15:36:43.949Z,23.21
2023-05-06T15:39:29.533Z,23.21
2023-05-06T15:42:16.711Z,23.20
2023-05-06T15:45:02.084Z,23.20
2023-05-06T15:47:48.410Z,23.20
2023-05-06T15:50:35.989Z,23.19
2023-05-06T15:53:21.837Z,23.18
2023-05-06T15:56:17.772Z,23.17
2023-05-06T15:59:04.376Z,23.17
2023-05-06T16:02:25.649Z,23.18
2023-05-06T16:04:56.132Z,23.18
2023-05-06T16:07:41.610Z,23.17
2023-05-06T16:10:26.896Z,23.15
2023-05-06T16:13:12.254Z,23.14
2023-05-06T16:15:58.326Z,23.16
2023-05-06T16:18:45.362Z,23.17
2023-05-06T16:21:30.445Z,23.19
2023-05-06T16:24:16.120Z,23.18
2023-05-06T16:27:01.734Z,23.19
2023-05-06T16:29:47.343Z,23.19
2023-05-06T16:32:32.639Z,23.16
2023-05-06T16:35:18.778Z,23.16
2023-05-06T16:38:04.220Z,23.16
2023-05-06T16:40:51.164Z,23.18
2023-05-06T16:43:36.387Z,23.17
2023-05-06T16:46:24.274Z,23.18
2023-05-06T16:49:10.143Z,23.16
2023-05-06T16:51:57.111Z,23.18
2023-05-06T16:54:42.580Z,23.18
2023-05-06T16:57:28.099Z,23.19
2023-05-06T17:00:14.031Z,23.19
2023-05-06T17:03:00.381Z,23.15
2023-05-06T17:05:47.050Z,23.18
2023-05-06T17:08:36.500Z,23.18
2023-05-06T17:11:22.424Z,23.18
2023-05-06T17:14:07.733Z,23.21
2023-05-06T17:16:53.550Z,23.20
2023-05-06T17:19:39.393Z,23.20
2023-05-06T17:22:26.587Z,23.20
2023-05-06T17:25:13.218Z,23.16
2023-05-06T17:27:59.453Z,23.17
2023-05-06T17:30:45.249Z,23.13
2023-05-06T17:33:31.597Z,23.14
2023-05-06T17:36:19.383Z,23.13
2023-05-06T17:39:06.382Z,23.12
2023-05-06T17:41:52.116Z,23.12
2023-05-06T17:44:38.156Z,23.12
2023-05-06T17:47:23.304Z,23.09
2023-05-06T17:50:10.242Z,23.06
2023-05-06T17:52:55.748Z,23.05
2023-05-06T17:55:41.500Z,23.04
2023-05-06T17:58:27.381Z,23.03
2023-05-06T18:01:12.619Z,23.01
2023-05-06T18:03:58.798Z,23.02
2023-05-06T18:06:44.527Z,22.98
2023-05-06T18:09:30.204Z,22.99
2023-05-06T18:12:16.164Z,22.99
2023-05-06T18:15:02.272Z,22.98
2023-05-06T18:17:47.798Z,22.98
2023-05-06T18:20:33.206Z,22.93
2023-05-06T18:23:18.400Z,22.93
2023-05-06T18:26:05.826Z,22.92
2023-05-06T18:28:51.689Z,22.93
2023-05-06T18:31:37.163Z,22.92
2023-05-06T18:34:22.479Z,22.93
2023-05-06T18:37:07.812Z,22.93
2023-05-06T18:39:53.146Z,22.95
2023-05-06T18:42:38.427Z,22.94
2023-05-06T18:45:24.578Z,22.97
2023-05-06T18:48:10.965Z,22.98
2023-05-06T18:50:56.487Z,22.99
2023-05-06T18:53:42.346Z,22.99
2023-05-06T18:56:27.928Z,23.00
2023-05-06T18:59:13.770Z,23.01
2023-05-06T19:02:00.094Z,23.03
2023-05-06T19:04:46.011Z,23.04
2023-05-06T19:07:32.115Z,23.07
2023-05-06T19:10:17.973Z,23.06
2023-05-06T19:13:05.001Z,23.06
2023-05-06T19:15:50.909Z,23.09
2023-05-06T19:18:36.177Z,23.09
2023-05-06T19:21:21.952Z,23.10
2023-05-06T19:24:07.843Z,23.09
2023-05-06T19:26:53.045Z,23.12
2023-05-06T19:29:38.465Z,23.12
2023-05-06T19:32:23.687Z,23.10
2023-05-06T19:35:10.218Z,23.13
2023-05-06T19:37:56.218Z,23.12
2023-05-06T19:40:41.366Z,23.14
2023-05-06T19:43:26.837Z,23.14
2023-05-06T19:46:12.473Z,23.11
2023-05-06T19:48:58.249Z,23.10
2023-05-06T19:51:43.579Z,23.09
2023-05-06T19:54:28.770Z,23.09
2023-05-06T19:57:14.006Z,23.12
2023-05-06T19:59:59.683Z,23.11
2023-05-06T20:02:46.292Z,23.13
2023-05-06T20:05:32.291Z,23.14
2023-05-06T20:08:17.815Z,23.17
2023-05-06T20:11:03.189Z,23.20
2023-05-06T20:13:48.268Z,23.21
2023-05-06T20:16:33.735Z,23.21
2023-05-06T20:19:21.338Z,23.23
2023-05-06T20:22:06.581Z,23.21
2023-05-06T20:24:53.171Z,23.19
2023-05-06T20:27:39.262Z,23.16
2023-05-06T20:30:24.797Z,23.14
2023-05-06T20:33:10.586Z,23.15
2023-05-06T20:35:56.419Z,23.17
2023-05-06T20:38:41.660Z,23.17
2023-05-06T20:41:27.042Z,23.16
2023-05-06T20:44:12.435Z,23.16
2023-05-06T20:46:57.644Z,23.17
2023-05-06T20:49:42.908Z,23.13
2023-05-06T20:52:28.192Z,23.14
2023-05-06T20:55:16.535Z,23.16
2023-05-06T20:58:02.020Z,23.13
2023-05-06T21:00:47.249Z,23.14
2023-05-06T21:03:32.744Z,23.11
2023-05-06T21:06:18.929Z,23.12
2023-05-06T21:09:04.384Z,23.10
2023-05-06T21:11:49.699Z,23.08
2023-05-06T21:14:36.031Z,23.11
2023-05-06T21:17:21.280Z,23.11
2023-05-06T21:20:07.431Z,23.11
2023-05-06T21:22:53.053Z,23.08
2023-05-06T21:25:38.402Z,23.10
2023-05-06T21:28:23.912Z,23.08
2023-05-06T21:31:09.424Z,23.09
2023-05-06T21:33:56.835Z,23.06
2023-05-06T21:36:42.404Z,23.07
2023-05-06T21:39:27.599Z,23.08
2023-05-06T21:42:12.923Z,23.10
2023-05-06T21:44:58.178Z,23.09
2023-05-06T21:47:44.958Z,23.11
2023-05-06T21:50:30.399Z,23.11
2023-05-06T21:53:15.735Z,23.11
2023-05-06T21:56:01.166Z,23.07
2023-05-06T21:58:46.584Z,23.04
2023-05-06T22:01:32.356Z,23.03
2023-05-06T22:04:18.822Z,23.00
2023-05-06T22:07:04.418Z,22.98
2023-05-06T22:09:49.495Z,22.94
2023-05-06T22:12:35.324Z,22.91
2023-05-06T22:15:20.853Z,22.87
2023-05-06T22:18:07.241Z,22.82
2023-05-06T22:20:56.493Z,22.80
2023-05-06T22:23:41.854Z,22.74
2023-05-06T22:26:30.362Z,22.73
2023-05-06T22:29:15.826Z,22.68
2023-05-06T22:32:01.308Z,22.65
2023-05-06T22:34:46.453Z,22.62
2023-05-06T22:37:31.658Z,22.57
2023-05-06T22:40:17.014Z,22.54
2023-05-06T22:43:02.467Z,22.52
2023-05-06T22:45:47.869Z,22.49
2023-05-06T22:48:33.133Z,22.47
2023-05-06T22:51:18.731Z,22.46
2023-05-06T22:54:04.304Z,22.44
2023-05-06T22:56:49.602Z,22.42
2023-05-06T22:59:34.767Z,22.39
2023-05-06T23:02:20.185Z,22.38
2023-05-06T23:05:05.808Z,22.35
2023-05-06T23:07:51.300Z,22.33
2023-05-06T23:10:36.610Z,22.31
2023-05-06T23:13:21.885Z,22.30
2023-05-06T23:16:10.080Z,22.27
2023-05-06T23:18:56.808Z,22.27
2023-05-06T23:21:43.831Z,22.25
2023-05-06T23:24:29.580Z,22.23
2023-05-06T23:27:14.910Z,22.23
2023-05-06T23:30:00.274Z,22.20
2023-05-06T23:32:45.619Z,22.19
2023-05-06T23:35:31.093Z,22.17
2023-05-06T23:38:16.592Z,22.16
2023-05-06T23:41:01.931Z,22.15
2023-05-06T23:43:47.181Z,22.14
2023-05-06T23:46:32.677Z,22.13
2023-05-06T23:49:18.302Z,22.11
2023-05-06T23:52:03.904Z,22.10
2023-05-06T23:54:49.454Z,22.09
2023-05-06T23:57:34.804Z,22.08
